Time;durP1;ratioP1;P1;durP2;ratioP2;P2;SDS_P1;SDS_P2;PMS_P1;PMS_P2;Temp;Humidity;BMP_temperature;BMP_pressure;BME280_temperature;BME280_humidity;BME280_pressure;Samples;Min_cycle;Max_cycle;Signal;HPM_P1;HPM_P2
2022/10/11 00:01:32;;;;;;;7.65;1.50;;;6.50;99.90;;;;;;5042284;28;20048;-84
2022/10/11 00:03:58;;;;;;;4.90;1.67;;;6.50;99.90;;;;;;5035692;28;20099;-83
2022/10/11 00:06:23;;;;;;;5.25;1.50;;;6.50;99.90;;;;;;5040120;28;20060;-84
2022/10/11 00:08:49;;;;;;;11.73;1.80;;;6.40;99.90;;;;;;5024743;28;20105;-83
2022/10/11 00:11:15;;;;;;;9.70;1.55;;;6.40;99.90;;;;;;5027165;28;20049;-83
2022/10/11 00:13:40;;;;;;;6.95;1.40;;;6.40;99.90;;;;;;5059388;28;20219;-83
2022/10/11 00:16:11;;;;;;;7.18;1.58;;;6.40;99.90;;;;;;5059024;28;20052;-83
2022/10/11 00:18:37;;;;;;;15.13;2.75;;;6.40;99.90;;;;;;5056318;28;20052;-83
2022/10/11 00:21:10;;;;;;;12.43;2.22;;;6.40;99.90;;;;;;5050872;28;20041;-84
2022/10/11 00:23:36;;;;;;;5.35;1.33;;;6.40;99.90;;;;;;5038657;28;20057;-84
2022/10/11 00:26:04;;;;;;;5.55;1.55;;;6.40;99.90;;;;;;5022720;28;20073;-84
2022/10/11 00:28:30;;;;;;;9.15;1.48;;;6.40;99.90;;;;;;5039561;28;20045;-84
2022/10/11 00:30:56;;;;;;;3.55;1.85;;;6.40;99.90;;;;;;5038791;28;20053;-84
2022/10/11 00:33:21;;;;;;;7.97;2.10;;;6.40;99.90;;;;;;5038384;28;20597;-84
2022/10/11 00:35:47;;;;;;;7.15;1.63;;;6.40;99.90;;;;;;5027518;28;20046;-84
2022/10/11 00:38:13;;;;;;;7.22;2.10;;;6.40;99.90;;;;;;5050551;28;20047;-84
2022/10/11 00:40:39;;;;;;;7.38;2.67;;;6.40;99.90;;;;;;5042448;28;20104;-84
2022/10/11 00:43:18;;;;;;;8.00;1.65;;;6.40;99.90;;;;;;5031415;28;20496;-84
2022/10/11 00:45:59;;;;;;;5.32;1.50;;;6.40;99.90;;;;;;5053884;28;20037;-84
2022/10/11 00:48:43;;;;;;;7.68;1.67;;;6.30;99.90;;;;;;5054152;28;20049;-84
2022/10/11 00:51:32;;;;;;;10.25;1.60;;;6.30;99.90;;;;;;5038815;28;20045;-84
2022/10/11 00:54:00;;;;;;;11.30;1.77;;;6.30;99.90;;;;;;5021720;28;20096;-84
2022/10/11 00:56:31;;;;;;;9.07;1.70;;;6.30;99.90;;;;;;5045478;28;20476;-83
2022/10/11 00:59:01;;;;;;;2.38;1.27;;;6.30;99.90;;;;;;5038819;28;20095;-83
2022/10/11 01:01:27;;;;;;;4.25;1.92;;;6.30;99.90;;;;;;5038203;28;20045;-83
2022/10/11 01:03:52;;;;;;;13.63;2.13;;;6.20;99.90;;;;;;5039906;28;20461;-84
2022/10/11 01:06:18;;;;;;;8.13;1.90;;;6.30;99.90;;;;;;5044396;28;20057;-83
2022/10/11 01:08:44;;;;;;;7.45;1.80;;;6.20;99.90;;;;;;5038458;28;20060;-83
2022/10/11 01:11:14;;;;;;;4.63;1.40;;;6.20;99.90;;;;;;5038575;28;20045;-84
2022/10/11 01:14:14;;;;;;;4.68;1.20;;;6.30;99.90;;;;;;5038348;28;20055;-83
2022/10/11 01:16:56;;;;;;;5.38;1.30;;;6.30;99.90;;;;;;5039670;28;20069;-83
2022/10/11 01:19:37;;;;;;;6.20;1.42;;;6.30;99.90;;;;;;5021342;28;20076;-83
2022/10/11 01:22:30;;;;;;;5.38;1.52;;;6.20;99.90;;;;;;5039055;28;20049;-84
2022/10/11 01:25:05;;;;;;;6.45;1.88;;;6.20;99.90;;;;;;5038416;28;20097;-83
2022/10/11 01:27:56;;;;;;;3.75;1.20;;;6.20;99.90;;;;;;5020047;28;20063;-84
2022/10/11 01:30:33;;;;;;;9.68;2.50;;;6.20;99.90;;;;;;5056013;28;20053;-84
2022/10/11 01:33:40;;;;;;;9.20;1.83;;;6.20;99.90;;;;;;5053907;28;20052;-84
2022/10/11 01:36:29;;;;;;;15.93;2.35;;;6.10;99.90;;;;;;5039445;28;20554;-84
2022/10/11 01:39:13;;;;;;;10.20;2.00;;;6.10;99.90;;;;;;5039084;28;20769;-84
2022/10/11 01:41:49;;;;;;;7.63;1.95;;;6.10;99.90;;;;;;5041232;28;20098;-84
2022/10/11 01:44:15;;;;;;;5.68;1.55;;;6.10;99.90;;;;;;5041236;28;20490;-84
2022/10/11 01:46:42;;;;;;;5.63;1.38;;;6.20;99.90;;;;;;5048229;28;20101;-83
2022/10/11 01:49:08;;;;;;;5.68;1.58;;;6.20;99.90;;;;;;5042906;28;20075;-84
2022/10/11 01:51:41;;;;;;;2.90;1.30;;;6.20;99.90;;;;;;5037227;28;20049;-84
2022/10/11 01:54:25;;;;;;;6.70;1.88;;;6.20;99.90;;;;;;5046034;28;20045;-84
2022/10/11 01:56:59;;;;;;;4.72;1.02;;;6.20;99.90;;;;;;5030254;28;20076;-84
2022/10/11 01:59:31;;;;;;;12.95;2.13;;;6.10;99.90;;;;;;5045106;28;20133;-83
2022/10/11 02:02:03;;;;;;;6.45;1.73;;;6.10;99.90;;;;;;5048105;28;20116;-83
2022/10/11 02:04:38;;;;;;;4.07;1.13;;;6.00;99.90;;;;;;5027506;28;20052;-83
2022/10/11 02:07:32;;;;;;;5.53;1.38;;;6.00;99.90;;;;;;5029069;28;20057;-84
2022/10/11 02:10:25;;;;;;;5.13;1.13;;;6.00;99.90;;;;;;5048013;28;20060;-83
2022/10/11 02:13:07;;;;;;;5.60;1.27;;;6.00;99.90;;;;;;5043951;28;20054;-84
2022/10/11 02:15:36;;;;;;;4.38;1.25;;;6.00;99.90;;;;;;5024793;28;20080;-84
2022/10/11 02:18:05;;;;;;;5.85;1.20;;;6.00;99.90;;;;;;5031045;28;20057;-85
2022/10/11 02:20:35;;;;;;;5.72;1.50;;;6.00;99.90;;;;;;5044471;28;20182;-84
2022/10/11 02:23:07;;;;;;;5.88;1.70;;;6.10;99.90;;;;;;5022727;28;20416;-84
2022/10/11 02:25:35;;;;;;;5.57;1.83;;;6.20;99.90;;;;;;5043656;28;20042;-84
2022/10/11 02:28:06;;;;;;;7.95;1.85;;;6.20;99.90;;;;;;5030712;28;20034;-85
2022/10/11 02:30:32;;;;;;;6.75;1.63;;;6.30;99.90;;;;;;5047176;28;20052;-84
2022/10/11 02:33:02;;;;;;;5.43;1.42;;;6.40;99.90;;;;;;5037737;28;20068;-83
2022/10/11 02:35:30;;;;;;;3.33;1.45;;;6.40;99.90;;;;;;5045391;28;20092;-84
2022/10/11 02:38:04;;;;;;;6.18;1.50;;;6.40;99.90;;;;;;5048033;28;20049;-84
2022/10/11 02:40:34;;;;;;;6.07;1.58;;;6.40;99.90;;;;;;5049668;28;20045;-84
2022/10/11 02:43:29;;;;;;;6.07;1.45;;;6.40;99.90;;;;;;5044124;28;20117;-84
2022/10/11 02:45:56;;;;;;;6.15;1.48;;;6.40;99.90;;;;;;5042794;28;20060;-85
2022/10/11 02:48:24;;;;;;;5.55;1.30;;;6.30;99.90;;;;;;5031390;28;20049;-84
2022/10/11 02:50:50;;;;;;;8.68;1.80;;;6.30;99.90;;;;;;5048757;28;20072;-85
2022/10/11 02:53:15;;;;;;;6.55;1.70;;;6.30;99.90;;;;;;5045927;28;20064;-84
2022/10/11 02:55:41;;;;;;;9.90;2.17;;;6.30;99.90;;;;;;5044317;28;20822;-84
2022/10/11 02:58:07;;;;;;;6.72;2.00;;;6.30;99.90;;;;;;5029705;28;21592;-84
2022/10/11 03:00:32;;;;;;;8.25;1.80;;;6.20;99.90;;;;;;5043191;28;20136;-84
2022/10/11 03:02:58;;;;;;;12.60;1.65;;;6.20;99.90;;;;;;5027836;28;20059;-84
2022/10/11 03:05:24;;;;;;;10.50;2.35;;;6.10;99.90;;;;;;5049634;28;20144;-84
2022/10/11 03:07:49;;;;;;;10.98;2.15;;;6.10;99.90;;;;;;5051864;28;20048;-84
2022/10/11 03:10:15;;;;;;;3.85;1.77;;;6.10;99.90;;;;;;5029706;28;20044;-83
2022/10/11 03:12:41;;;;;;;6.10;1.80;;;6.10;99.90;;;;;;5051245;28;20075;-83
2022/10/11 03:15:07;;;;;;;4.30;1.35;;;6.10;99.90;;;;;;5039151;28;20057;-83
2022/10/11 03:17:32;;;;;;;3.92;1.60;;;6.10;99.90;;;;;;5042853;28;20127;-83
2022/10/11 03:19:58;;;;;;;11.45;2.28;;;6.00;99.90;;;;;;5050126;28;20491;-84
2022/10/11 03:22:24;;;;;;;8.52;1.58;;;6.00;99.90;;;;;;5053872;28;20072;-85
2022/10/11 03:24:49;;;;;;;5.75;2.22;;;6.00;99.90;;;;;;5052969;28;20045;-84
2022/10/11 03:27:15;;;;;;;7.70;1.73;;;6.00;99.90;;;;;;5033420;28;20139;-84
2022/10/11 03:29:40;;;;;;;3.63;1.33;;;6.00;99.90;;;;;;5040228;28;20047;-84
2022/10/11 03:32:06;;;;;;;7.18;2.20;;;6.10;99.90;;;;;;5049483;28;20041;-84
2022/10/11 03:34:32;;;;;;;4.85;1.17;;;5.90;99.90;;;;;;5043622;28;20077;-84
2022/10/11 03:36:58;;;;;;;9.48;2.00;;;5.90;99.90;;;;;;5056558;28;20460;-84
2022/10/11 03:39:23;;;;;;;3.78;1.35;;;5.90;99.90;;;;;;5023419;28;20053;-84
2022/10/11 03:41:49;;;;;;;6.43;1.55;;;5.80;99.90;;;;;;5008473;28;20061;-85
2022/10/11 03:44:15;;;;;;;6.50;1.52;;;5.80;99.90;;;;;;4990793;28;20047;-84
2022/10/11 03:46:40;;;;;;;6.45;1.52;;;5.80;99.90;;;;;;5042252;28;20041;-85
2022/10/11 03:49:06;;;;;;;7.30;1.77;;;5.80;99.90;;;;;;5009983;28;20071;-84
2022/10/11 03:51:31;;;;;;;5.60;1.63;;;5.90;99.90;;;;;;5038925;28;20089;-84
2022/10/11 03:53:57;;;;;;;7.50;2.25;;;5.80;99.90;;;;;;5022703;28;20053;-85
2022/10/11 03:56:23;;;;;;;3.33;1.73;;;5.80;99.90;;;;;;5041243;28;20049;-84
2022/10/11 03:58:48;;;;;;;5.68;1.80;;;5.80;99.90;;;;;;5041287;28;20065;-84
2022/10/11 04:01:14;;;;;;;4.90;1.58;;;5.70;99.90;;;;;;5023450;28;20088;-84
2022/10/11 04:03:40;;;;;;;9.20;1.85;;;5.70;99.90;;;;;;5039944;28;20087;-84
2022/10/11 04:06:06;;;;;;;12.00;1.70;;;5.70;99.90;;;;;;5038507;28;20080;-84
2022/10/11 04:08:33;;;;;;;3.53;1.48;;;5.70;99.90;;;;;;5026797;28;20067;-84
2022/10/11 04:10:58;;;;;;;4.30;1.38;;;5.80;99.90;;;;;;5038757;28;20067;-84
2022/10/11 04:13:24;;;;;;;9.40;1.70;;;5.70;99.90;;;;;;5039871;28;20050;-84
2022/10/11 04:15:50;;;;;;;3.65;1.20;;;5.70;99.90;;;;;;5039473;28;20045;-84
2022/10/11 04:18:16;;;;;;;4.38;1.55;;;5.70;99.90;;;;;;5039292;28;20050;-84
2022/10/11 04:20:41;;;;;;;4.75;1.63;;;5.70;99.90;;;;;;5044195;28;20081;-84
2022/10/11 04:23:07;;;;;;;7.10;1.40;;;5.60;99.90;;;;;;5076390;28;20052;-84
2022/10/11 04:25:33;;;;;;;7.35;1.63;;;5.70;99.90;;;;;;5042024;28;20097;-84
2022/10/11 04:27:58;;;;;;;3.78;1.10;;;5.70;99.90;;;;;;5044356;28;20048;-84
2022/10/11 04:30:24;;;;;;;3.58;1.35;;;5.70;99.90;;;;;;5018902;28;20077;-84
2022/10/11 04:32:50;;;;;;;5.07;1.85;;;5.60;99.90;;;;;;5027341;28;20504;-84
2022/10/11 04:35:16;;;;;;;5.70;1.85;;;5.60;99.90;;;;;;5042480;28;20048;-84
2022/10/11 04:37:41;;;;;;;7.57;1.63;;;5.60;99.90;;;;;;5042280;28;20080;-85
2022/10/11 04:40:08;;;;;;;5.78;1.60;;;5.60;99.90;;;;;;5038488;28;20373;-85
2022/10/11 04:42:33;;;;;;;4.10;1.42;;;5.60;99.90;;;;;;5039380;28;20075;-85
2022/10/11 04:44:59;;;;;;;4.80;1.52;;;5.60;99.90;;;;;;5041638;28;20073;-84
2022/10/11 04:47:25;;;;;;;7.75;1.52;;;5.60;99.90;;;;;;5040369;28;20053;-84
2022/10/11 04:49:50;;;;;;;31.88;2.40;;;5.50;99.90;;;;;;5038221;28;20129;-83
2022/10/11 04:52:16;;;;;;;3.97;1.98;;;5.60;99.90;;;;;;5038008;28;20045;-85
2022/10/11 04:54:46;;;;;;;10.00;2.30;;;5.60;99.90;;;;;;5054211;28;20087;-84
2022/10/11 04:57:12;;;;;;;10.02;2.13;;;5.60;99.90;;;;;;5028225;28;20064;-83
2022/10/11 04:59:38;;;;;;;2.65;1.50;;;5.60;99.90;;;;;;5038571;28;20045;-84
2022/10/11 05:02:03;;;;;;;6.10;1.90;;;5.70;99.90;;;;;;5005809;28;20039;-84
2022/10/11 05:04:29;;;;;;;4.82;1.80;;;5.60;99.90;;;;;;5031510;28;20049;-84
2022/10/11 05:06:55;;;;;;;24.23;6.65;;;5.70;99.90;;;;;;5034789;28;20132;-85
2022/10/11 05:09:20;;;;;;;15.27;5.40;;;5.60;99.90;;;;;;5032734;28;20632;-85
2022/10/11 05:11:46;;;;;;;10.68;4.20;;;5.60;99.90;;;;;;5033551;28;20041;-84
2022/10/11 05:14:12;;;;;;;6.20;1.70;;;5.60;99.90;;;;;;5042158;28;20033;-84
2022/10/11 05:16:38;;;;;;;8.40;1.90;;;5.60;99.90;;;;;;5029620;28;20033;-83
2022/10/11 05:19:03;;;;;;;8.43;1.83;;;5.60;99.90;;;;;;5027568;28;20105;-83
2022/10/11 05:21:29;;;;;;;4.97;1.95;;;5.70;99.90;;;;;;5049017;28;20083;-84
2022/10/11 05:23:56;;;;;;;11.38;1.90;;;5.70;99.90;;;;;;5024082;28;20063;-83
2022/10/11 05:26:24;;;;;;;7.03;1.85;;;5.70;99.90;;;;;;5046387;28;20136;-86
2022/10/11 05:28:50;;;;;;;7.43;2.33;;;5.70;99.90;;;;;;5049008;28;20045;-87
2022/10/11 05:31:16;;;;;;;13.70;5.10;;;5.70;99.90;;;;;;5016086;28;20040;-86
2022/10/11 05:33:42;;;;;;;10.38;2.92;;;5.70;99.90;;;;;;5035191;28;20053;-87
2022/10/11 05:36:08;;;;;;;6.78;2.00;;;5.70;99.90;;;;;;5017079;28;20099;-86
2022/10/11 05:38:34;;;;;;;3.40;1.63;;;5.70;99.90;;;;;;5015989;28;20041;-87
2022/10/11 05:41:01;;;;;;;7.20;2.50;;;5.80;99.90;;;;;;5032899;28;20052;-88
2022/10/11 05:43:28;;;;;;;8.57;2.90;;;5.70;99.90;;;;;;5032448;28;20052;-87
2022/10/11 05:45:54;;;;;;;9.00;2.72;;;5.80;99.90;;;;;;5032794;28;20037;-86
2022/10/11 05:48:20;;;;;;;12.65;2.38;;;5.80;99.90;;;;;;5022432;28;20905;-87
2022/10/11 05:50:46;;;;;;;4.97;1.65;;;5.80;99.90;;;;;;5036407;28;20049;-88
2022/10/11 05:53:11;;;;;;;8.48;2.58;;;5.80;99.90;;;;;;5037282;28;20049;-87
2022/10/11 05:55:39;;;;;;;5.70;2.70;;;5.80;99.90;;;;;;5030309;28;20045;-88
2022/10/11 05:58:06;;;;;;;6.93;1.92;;;5.80;99.90;;;;;;5054844;28;20049;-87
2022/10/11 06:00:35;;;;;;;5.07;2.38;;;5.80;99.90;;;;;;5038731;28;20041;-88
2022/10/11 06:03:01;;;;;;;5.80;2.30;;;5.80;99.90;;;;;;5037690;28;20043;-87
2022/10/11 06:05:27;;;;;;;13.07;2.80;;;5.80;99.90;;;;;;5053340;28;20087;-87
2022/10/11 06:07:52;;;;;;;8.63;2.65;;;5.80;99.90;;;;;;5015945;28;20042;-87
2022/10/11 06:10:18;;;;;;;10.07;2.10;;;5.80;99.90;;;;;;5027209;28;20144;-87
2022/10/11 06:12:44;;;;;;;13.52;3.03;;;5.80;99.90;;;;;;5021080;28;20064;-87
2022/10/11 06:15:10;;;;;;;8.70;2.83;;;5.80;99.90;;;;;;5047511;28;20044;-88
2022/10/11 06:17:36;;;;;;;14.15;3.17;;;5.80;99.90;;;;;;5030635;28;20114;-88
2022/10/11 06:20:03;;;;;;;8.60;2.53;;;5.90;99.90;;;;;;5043384;28;20056;-88
2022/10/11 06:22:29;;;;;;;9.68;2.63;;;5.80;99.90;;;;;;5043238;28;20060;-88
2022/10/11 06:24:54;;;;;;;12.73;2.85;;;5.90;99.90;;;;;;5060881;28;20041;-88
2022/10/11 06:27:20;;;;;;;7.78;2.70;;;5.90;99.90;;;;;;5043927;28;20049;-88
2022/10/11 06:29:46;;;;;;;7.65;2.83;;;5.90;99.90;;;;;;5044259;28;20078;-87
2022/10/11 06:32:14;;;;;;;10.52;2.92;;;5.90;99.90;;;;;;5039330;28;20077;-87
2022/10/11 06:34:40;;;;;;;6.25;2.05;;;6.00;99.90;;;;;;5026184;28;20042;-87
2022/10/11 06:37:06;;;;;;;8.30;2.33;;;6.00;99.90;;;;;;5037878;28;20140;-87
2022/10/11 06:39:31;;;;;;;8.65;2.15;;;6.10;99.90;;;;;;5043238;28;20049;-87
2022/10/11 06:41:57;;;;;;;12.52;2.25;;;6.10;99.90;;;;;;5023249;28;20095;-85
2022/10/11 06:44:24;;;;;;;11.48;2.35;;;6.10;99.90;;;;;;5023511;28;20045;-86
2022/10/11 06:46:50;;;;;;;6.22;2.28;;;6.10;99.90;;;;;;5041530;28;20084;-86
2022/10/11 06:49:15;;;;;;;8.50;2.65;;;6.20;99.90;;;;;;5059982;28;20049;-86
2022/10/11 06:51:41;;;;;;;8.27;2.42;;;6.20;99.90;;;;;;5041409;28;20044;-87
2022/10/11 06:54:07;;;;;;;14.95;3.03;;;6.30;99.90;;;;;;5040181;28;20037;-86
2022/10/11 06:56:32;;;;;;;7.55;2.45;;;6.40;99.90;;;;;;5052227;28;20219;-87
2022/10/11 06:58:59;;;;;;;15.23;3.22;;;6.40;99.90;;;;;;5043490;28;20072;-87
2022/10/11 07:01:25;;;;;;;7.97;2.75;;;6.40;99.90;;;;;;5059196;28;20442;-86
2022/10/11 07:03:53;;;;;;;9.10;2.40;;;6.40;99.90;;;;;;5042249;28;20527;-87
2022/10/11 07:06:25;;;;;;;12.85;3.03;;;6.40;99.90;;;;;;5035418;28;20089;-86
2022/10/11 07:08:51;;;;;;;8.57;2.83;;;6.60;99.90;;;;;;5060268;28;20057;-86
2022/10/11 07:11:25;;;;;;;12.05;2.83;;;6.60;99.90;;;;;;5060041;28;20052;-86
2022/10/11 07:14:06;;;;;;;11.32;3.15;;;6.70;99.90;;;;;;5021364;28;20041;-85
2022/10/11 07:16:34;;;;;;;11.70;2.90;;;6.80;99.90;;;;;;5039968;28;20057;-86
2022/10/11 07:19:02;;;;;;;9.30;2.72;;;6.80;99.90;;;;;;5062307;28;20093;-86
2022/10/11 07:21:29;;;;;;;8.82;2.83;;;6.80;99.90;;;;;;5062830;28;20071;-86
2022/10/11 07:23:55;;;;;;;8.13;3.20;;;6.90;99.90;;;;;;5056144;28;20446;-86
2022/10/11 07:26:20;;;;;;;6.72;2.60;;;6.90;99.90;;;;;;5059306;28;20148;-86
2022/10/11 07:28:46;;;;;;;7.97;2.63;;;6.90;99.90;;;;;;5040527;28;20416;-85
2022/10/11 07:31:16;;;;;;;10.30;2.78;;;7.00;99.90;;;;;;5016567;28;20045;-86
2022/10/11 07:33:42;;;;;;;8.25;2.65;;;7.00;99.90;;;;;;5050407;28;20041;-86
2022/10/11 07:36:08;;;;;;;14.23;3.05;;;7.10;99.90;;;;;;5032629;28;20043;-86
2022/10/11 07:38:34;;;;;;;11.30;2.70;;;7.10;99.90;;;;;;5056343;28;20067;-87
2022/10/11 07:41:04;;;;;;;9.40;3.28;;;7.20;99.90;;;;;;5023021;28;20112;-87
2022/10/11 07:43:30;;;;;;;9.18;2.80;;;7.20;99.90;;;;;;5023093;28;20087;-86
2022/10/11 07:45:59;;;;;;;8.57;2.30;;;7.30;99.90;;;;;;5031940;28;20049;-86
2022/10/11 07:48:25;;;;;;;8.75;3.15;;;7.30;99.90;;;;;;5023083;28;20091;-86
2022/10/11 07:50:50;;;;;;;8.52;2.60;;;7.30;99.90;;;;;;5023684;28;20107;-86
2022/10/11 07:53:16;;;;;;;7.78;2.33;;;7.30;99.90;;;;;;4994681;28;20454;-87
2022/10/11 07:55:42;;;;;;;10.15;2.50;;;7.40;99.90;;;;;;5040078;28;20114;-87
2022/10/11 07:58:09;;;;;;;13.27;2.65;;;7.40;99.90;;;;;;5006371;28;20049;-87
2022/10/11 08:00:35;;;;;;;8.88;2.08;;;7.50;99.90;;;;;;5039359;28;20073;-87
2022/10/11 08:03:03;;;;;;;13.07;2.88;;;7.50;99.90;;;;;;5023114;28;20064;-87
2022/10/11 08:05:29;;;;;;;9.57;2.35;;;7.60;99.90;;;;;;5023570;28;20129;-87
2022/10/11 08:07:56;;;;;;;13.40;2.85;;;7.60;99.90;;;;;;5024410;28;20050;-88
2022/10/11 08:10:23;;;;;;;11.07;2.63;;;7.70;99.90;;;;;;5007236;28;20397;-87
2022/10/11 08:12:49;;;;;;;11.57;2.88;;;7.70;99.90;;;;;;5007268;28;20404;-86
2022/10/11 08:15:15;;;;;;;7.68;2.63;;;7.80;99.90;;;;;;5042945;28;20049;-87
2022/10/11 08:17:40;;;;;;;11.57;2.47;;;7.80;99.90;;;;;;5011956;28;20033;-87
2022/10/11 08:20:06;;;;;;;9.15;3.20;;;8.00;99.90;;;;;;5028409;28;20072;-86
2022/10/11 08:22:32;;;;;;;7.28;2.47;;;8.00;99.90;;;;;;5027948;28;20057;-86
2022/10/11 08:24:57;;;;;;;11.85;2.67;;;8.10;99.90;;;;;;5040990;28;20049;-87
2022/10/11 08:27:23;;;;;;;15.35;3.35;;;8.20;99.90;;;;;;5039081;28;20064;-88
2022/10/11 08:29:49;;;;;;;5.53;2.10;;;8.40;99.90;;;;;;5023231;28;20073;-87
2022/10/11 08:32:15;;;;;;;12.00;2.80;;;8.60;99.90;;;;;;5038051;28;20412;-87
2022/10/11 08:34:40;;;;;;;10.02;2.20;;;8.80;99.90;;;;;;5022749;28;20060;-87
2022/10/11 08:37:06;;;;;;;9.18;2.50;;;9.10;99.90;;;;;;5024665;28;20073;-88
2022/10/11 08:39:32;;;;;;;10.68;2.60;;;9.30;99.90;;;;;;5021003;28;20068;-86
2022/10/11 08:42:03;;;;;;;7.60;2.22;;;9.40;99.90;;;;;;5044728;28;20056;-87
2022/10/11 08:44:50;;;;;;;15.23;3.38;;;9.50;99.90;;;;;;5037571;28;20848;-87
2022/10/11 08:47:20;;;;;;;8.88;2.42;;;9.60;99.90;;;;;;5029202;28;20094;-87
2022/10/11 08:49:47;;;;;;;11.30;2.50;;;9.70;99.90;;;;;;5053627;28;20072;-86
2022/10/11 08:52:17;;;;;;;9.50;2.22;;;9.80;99.90;;;;;;5021823;28;20056;-87
2022/10/11 08:55:06;;;;;;;8.40;2.60;;;9.80;99.90;;;;;;5038679;28;20049;-86
2022/10/11 08:57:36;;;;;;;8.75;1.92;;;9.80;99.90;;;;;;5021714;28;20071;-87
2022/10/11 09:00:14;;;;;;;13.25;2.25;;;9.90;99.90;;;;;;5038537;28;20519;-87
2022/10/11 09:02:56;;;;;;;10.77;2.05;;;10.00;99.90;;;;;;5037738;28;20049;-87
2022/10/11 09:05:26;;;;;;;10.10;2.35;;;10.10;99.90;;;;;;5020892;28;20049;-86
2022/10/11 09:08:04;;;;;;;10.40;2.63;;;10.20;99.90;;;;;;5024436;28;20458;-86
2022/10/11 09:10:33;;;;;;;8.13;2.30;;;10.40;99.90;;;;;;5021440;28;20046;-86
2022/10/11 09:13:29;;;;;;;9.18;1.77;;;10.50;99.90;;;;;;5028575;28;20051;-87
2022/10/11 09:16:04;;;;;;;18.40;2.95;;;10.60;99.90;;;;;;5058462;28;20041;-86
2022/10/11 09:18:48;;;;;;;16.17;1.92;;;10.60;99.90;;;;;;5051586;28;20049;-86
2022/10/11 09:21:35;;;;;;;11.02;2.08;;;10.80;99.90;;;;;;5037753;28;20079;-86
2022/10/11 09:24:08;;;;;;;7.30;2.00;;;11.00;99.90;;;;;;5037329;28;20060;-87
2022/10/11 09:26:33;;;;;;;;;;;11.40;99.90;;;;;;5054364;28;20690;-86
2022/10/11 09:29:30;;;;;;;6.63;1.55;;;11.70;99.90;;;;;;5035752;28;20035;-88
2022/10/11 09:31:57;;;;;;;12.63;1.95;;;12.20;99.90;;;;;;5037290;28;20034;-87
2022/10/11 09:34:32;;;;;;;21.85;4.90;;;12.80;99.90;;;;;;5009316;28;20152;-87
2022/10/11 09:37:25;;;;;;;11.25;2.30;;;13.20;99.90;;;;;;5038736;28;20472;-88
2022/10/11 09:40:18;;;;;;;10.25;1.88;;;13.70;99.90;;;;;;5034310;28;20566;-87
2022/10/11 09:42:43;;;;;;;7.35;2.15;;;14.10;99.90;;;;;;5048748;28;20081;-87
2022/10/11 09:45:16;;;;;;;13.38;2.40;;;14.50;99.90;;;;;;5031777;28;20041;-87
2022/10/11 09:47:42;;;;;;;9.73;2.30;;;14.80;99.90;;;;;;5040747;28;20080;-86
2022/10/11 09:50:28;;;;;;;14.02;2.13;;;15.10;99.90;;;;;;5008620;28;20037;-86
2022/10/11 09:53:00;;;;;;;11.30;2.08;;;15.20;99.90;;;;;;5058655;28;20064;-87
2022/10/11 09:55:39;;;;;;;10.93;2.05;;;15.30;99.90;;;;;;5036051;28;20124;-88
2022/10/11 09:58:23;;;;;;;12.10;1.88;;;15.20;99.90;;;;;;5034931;28;20049;-87
2022/10/11 10:01:04;;;;;;;10.85;2.25;;;15.00;99.90;;;;;;5044793;28;20061;-88
2022/10/11 10:03:35;;;;;;;6.50;1.55;;;14.90;99.90;;;;;;5056680;28;20033;-88
2022/10/11 10:06:26;;;;;;;6.50;1.55;;;14.80;99.90;;;;;;5056689;28;20164;-87
2022/10/11 10:08:51;;;;;;;10.55;1.90;;;14.50;99.90;;;;;;5033021;28;20544;-88
2022/10/11 10:11:18;;;;;;;10.05;1.45;;;14.40;99.90;;;;;;5054042;28;20041;-88
2022/10/11 10:13:48;;;;;;;9.30;1.80;;;14.30;99.90;;;;;;5052074;28;20042;-87
2022/10/11 10:16:32;;;;;;;9.23;1.92;;;14.20;99.90;;;;;;5037531;28;20116;-87
2022/10/11 10:18:59;;;;;;;6.32;1.80;;;14.10;99.90;;;;;;5053202;28;20053;-87
2022/10/11 10:21:33;;;;;;;8.20;1.38;;;14.10;99.90;;;;;;5043125;28;20033;-88
2022/10/11 10:24:06;;;;;;;11.15;1.50;;;14.20;99.90;;;;;;5024895;28;20265;-88
2022/10/11 10:26:32;;;;;;;17.85;3.08;;;14.20;99.90;;;;;;5041122;28;20072;-88
2022/10/11 10:29:18;;;;;;;7.10;1.35;;;14.30;99.90;;;;;;5024653;28;20053;-87
2022/10/11 10:31:47;;;;;;;19.10;2.55;;;14.30;99.90;;;;;;5035022;28;20046;-87
2022/10/11 10:34:16;;;;;;;13.98;2.63;;;14.40;99.90;;;;;;5026993;28;20061;-88
2022/10/11 10:36:51;;;;;;;8.60;1.55;;;14.40;99.90;;;;;;5047473;28;20041;-87
2022/10/11 10:39:35;;;;;;;12.73;1.40;;;14.50;99.90;;;;;;5047233;28;20138;-87
2022/10/11 10:42:03;;;;;;;11.93;2.03;;;14.60;99.90;;;;;;5040886;28;20081;-88
2022/10/11 10:44:29;;;;;;;5.35;1.38;;;14.60;99.90;;;;;;5040752;28;20049;-87
2022/10/11 10:47:29;;;;;;;10.85;1.27;;;14.70;99.90;;;;;;5038087;28;20053;-89
2022/10/11 10:50:20;;;;;;;10.75;1.58;;;14.70;99.90;;;;;;5040636;28;20041;-89
2022/10/11 10:52:58;;;;;;;6.25;1.50;;;14.70;99.90;;;;;;5039853;28;20053;-88
2022/10/11 10:55:36;;;;;;;6.25;1.77;;;14.70;99.90;;;;;;5024336;28;20045;-88
2022/10/11 10:58:20;;;;;;;12.88;2.40;;;14.60;99.90;;;;;;5040113;28;20053;-89
2022/10/11 11:00:49;;;;;;;11.55;2.10;;;14.70;99.90;;;;;;5040398;28;20041;-88
2022/10/11 11:03:33;;;;;;;10.80;2.70;;;14.60;99.90;;;;;;5040906;28;20042;-89
2022/10/11 11:06:06;;;;;;;10.82;1.77;;;14.70;99.90;;;;;;5040015;28;20065;-88
2022/10/11 11:08:54;;;;;;;8.73;1.70;;;14.70;99.90;;;;;;5025062;28;20049;-89
2022/10/11 11:11:45;;;;;;;9.18;1.25;;;14.80;99.90;;;;;;5040455;28;20462;-88
2022/10/11 11:14:26;;;;;;;11.57;2.03;;;15.00;99.90;;;;;;5023341;28;20136;-88
2022/10/11 11:17:23;;;;;;;10.50;1.50;;;15.10;99.90;;;;;;5040405;28;20045;-88
2022/10/11 11:20:13;;;;;;;19.38;2.10;;;15.10;99.90;;;;;;5036637;28;20493;-88
2022/10/11 11:22:53;;;;;;;4.53;1.00;;;15.10;99.90;;;;;;5059228;28;20037;-88
2022/10/11 11:26:01;;;;;;;14.50;2.30;;;15.30;99.90;;;;;;5059902;28;20135;-87
2022/10/11 11:28:48;;;;;;;4.65;1.45;;;15.40;99.90;;;;;;5059837;28;20053;-87
2022/10/11 11:31:45;;;;;;;8.07;1.92;;;15.40;99.90;;;;;;5039498;28;20049;-87
2022/10/11 11:34:25;;;;;;;9.10;1.70;;;15.40;99.90;;;;;;5039980;28;20088;-87
2022/10/11 11:37:29;;;;;;;9.52;1.80;;;15.50;99.90;;;;;;5039778;28;20366;-87
2022/10/11 11:40:30;;;;;;;4.45;1.95;;;15.70;99.90;;;;;;5043846;28;20045;-87
2022/10/11 11:43:05;;;;;;;8.75;1.80;;;15.70;99.90;;;;;;5059579;28;20049;-87
2022/10/11 11:45:57;;;;;;;11.50;1.90;;;15.80;99.90;;;;;;5059172;28;20083;-87
2022/10/11 11:48:25;;;;;;;10.85;1.42;;;15.90;99.90;;;;;;5042458;28;20051;-88
2022/10/11 11:51:18;;;;;;;9.05;1.60;;;16.00;99.90;;;;;;5050566;28;20045;-88
2022/10/11 11:54:15;;;;;;;13.18;1.77;;;16.20;99.90;;;;;;5023054;28;20579;-88
2022/10/11 11:56:54;;;;;;;15.57;2.05;;;16.30;99.90;;;;;;5022536;28;20084;-87
2022/10/11 11:59:46;;;;;;;10.48;2.10;;;16.20;99.90;;;;;;5040070;28;20045;-88
2022/10/11 12:02:31;;;;;;;4.75;1.42;;;15.90;99.90;;;;;;5050939;28;20605;-87
2022/10/11 12:04:57;;;;;;;9.50;2.17;;;15.70;99.90;;;;;;5039449;28;20099;-87
2022/10/11 12:07:25;;;;;;;13.30;1.70;;;15.50;99.90;;;;;;5023121;28;20042;-88
2022/10/11 12:09:54;;;;;;;8.63;1.92;;;15.50;99.90;;;;;;5038988;28;20042;-87
2022/10/11 12:12:35;;;;;;;10.07;1.73;;;15.60;99.90;;;;;;5040362;28;20036;-88
2022/10/11 12:15:22;;;;;;;10.25;1.25;;;15.70;99.90;;;;;;5058828;28;20139;-87
2022/10/11 12:17:54;;;;;;;12.82;1.85;;;15.80;99.90;;;;;;5042527;28;20045;-87
2022/10/11 12:20:24;;;;;;;9.60;1.75;;;15.90;99.90;;;;;;5059547;28;20045;-87
2022/10/11 12:23:02;;;;;;;8.82;1.73;;;16.00;99.90;;;;;;5055299;28;20072;-87
2022/10/11 12:25:28;;;;;;;9.05;1.80;;;16.10;99.90;;;;;;5039288;28;20084;-87
2022/10/11 12:27:59;;;;;;;8.35;1.60;;;16.20;99.90;;;;;;5022181;28;20041;-87
2022/10/11 12:30:43;;;;;;;12.93;1.60;;;16.30;99.90;;;;;;5072729;28;20052;-87
2022/10/11 12:33:44;;;;;;;9.85;1.10;;;16.30;99.90;;;;;;5039570;28;20084;-87
2022/10/11 12:36:30;;;;;;;8.45;1.73;;;16.30;99.90;;;;;;5037800;28;20061;-88
2022/10/11 12:39:18;;;;;;;8.73;1.40;;;16.50;99.90;;;;;;5039062;28;20072;-88
2022/10/11 12:41:50;;;;;;;7.57;1.70;;;16.50;99.90;;;;;;5039067;28;20509;-88
2022/10/11 12:44:25;;;;;;;6.45;1.35;;;16.60;99.90;;;;;;5038339;28;20056;-88
2022/10/11 12:46:52;;;;;;;5.78;1.52;;;16.70;99.90;;;;;;5026950;28;20109;-88
2022/10/11 12:49:35;;;;;;;12.23;2.30;;;16.70;99.90;;;;;;5041797;28;20045;-87
2022/10/11 12:52:16;;;;;;;10.88;2.30;;;16.80;99.90;;;;;;5042150;28;20487;-88
2022/10/11 12:55:19;;;;;;;10.97;1.90;;;16.90;99.90;;;;;;5041402;28;20053;-87
2022/10/11 12:58:20;;;;;;;9.80;1.88;;;16.90;99.90;;;;;;5031584;28;20098;-87
2022/10/11 13:00:54;;;;;;;11.70;1.80;;;17.00;99.90;;;;;;5057882;28;20072;-87
2022/10/11 13:03:38;;;;;;;8.98;1.65;;;17.10;99.90;;;;;;5058796;28;20051;-89
2022/10/11 13:06:20;;;;;;;10.60;1.65;;;17.40;99.90;;;;;;5058072;28;20059;-87
2022/10/11 13:08:53;;;;;;;9.57;1.67;;;17.40;99.90;;;;;;5041877;28;20104;-88
2022/10/11 13:11:24;;;;;;;8.63;1.73;;;17.40;99.90;;;;;;5057515;28;20499;-88
2022/10/11 13:13:56;;;;;;;7.82;1.75;;;17.40;99.90;;;;;;5058216;28;20056;-87
2022/10/11 13:16:29;;;;;;;8.73;2.33;;;17.30;99.90;;;;;;5058473;28;20036;-87